sensor_id;sensor_type;location;lat;lon;timestamp;temperature;humidity
9847;DHT22;68671;50.084;8.794;2023-05-28T00:01:05;18.30;93.60
9847;DHT22;68671;50.084;8.794;2023-05-28T00:03:32;18.20;93.60
9847;DHT22;68671;50.084;8.794;2023-05-28T00:06:01;18.20;93.80
9847;DHT22;68671;50.084;8.794;2023-05-28T00:08:28;18.20;93.90
9847;DHT22;68671;50.084;8.794;2023-05-28T00:10:54;18.20;94.00
9847;DHT22;68671;50.084;8.794;2023-05-28T00:13:27;18.10;94.10
9847;DHT22;68671;50.084;8.794;2023-05-28T00:15:54;18.20;94.30
9847;DHT22;68671;50.084;8.794;2023-05-28T00:18:21;18.10;94.40
9847;DHT22;68671;50.084;8.794;2023-05-28T00:20:49;18.10;94.50
9847;DHT22;68671;50.084;8.794;2023-05-28T00:23:16;18.10;94.70
9847;DHT22;68671;50.084;8.794;2023-05-28T00:25:43;18.00;94.70
9847;DHT22;68671;50.084;8.794;2023-05-28T00:28:10;18.10;94.80
9847;DHT22;68671;50.084;8.794;2023-05-28T00:30:39;18.00;94.90
9847;DHT22;68671;50.084;8.794;2023-05-28T00:33:06;18.00;95.10
9847;DHT22;68671;50.084;8.794;2023-05-28T00:35:33;18.00;95.20
9847;DHT22;68671;50.084;8.794;2023-05-28T00:38:00;17.90;95.40
9847;DHT22;68671;50.084;8.794;2023-05-28T00:40:27;17.90;95.50
9847;DHT22;68671;50.084;8.794;2023-05-28T00:42:54;17.80;95.70
9847;DHT22;68671;50.084;8.794;2023-05-28T00:45:21;17.80;95.80
9847;DHT22;68671;50.084;8.794;2023-05-28T00:47:49;17.70;96.00
9847;DHT22;68671;50.084;8.794;2023-05-28T00:50:17;17.70;96.20
9847;DHT22;68671;50.084;8.794;2023-05-28T00:52:47;17.70;96.30
9847;DHT22;68671;50.084;8.794;2023-05-28T00:55:16;17.70;96.40
9847;DHT22;68671;50.084;8.794;2023-05-28T00:57:44;17.70;96.50
9847;DHT22;68671;50.084;8.794;2023-05-28T01:00:13;17.60;96.60
9847;DHT22;68671;50.084;8.794;2023-05-28T01:02:41;17.60;96.80
9847;DHT22;68671;50.084;8.794;2023-05-28T01:05:09;17.50;96.90
9847;DHT22;68671;50.084;8.794;2023-05-28T01:07:37;17.50;97.20
9847;DHT22;68671;50.084;8.794;2023-05-28T01:10:05;17.40;97.40
9847;DHT22;68671;50.084;8.794;2023-05-28T01:12:34;17.40;97.60
9847;DHT22;68671;50.084;8.794;2023-05-28T01:15:02;17.30;97.80
9847;DHT22;68671;50.084;8.794;2023-05-28T01:17:30;17.30;98.00
9847;DHT22;68671;50.084;8.794;2023-05-28T01:19:57;17.20;98.30
9847;DHT22;68671;50.084;8.794;2023-05-28T01:22:35;17.20;98.60
9847;DHT22;68671;50.084;8.794;2023-05-28T01:25:06;17.10;98.70
9847;DHT22;68671;50.084;8.794;2023-05-28T01:27:36;17.10;99.00
9847;DHT22;68671;50.084;8.794;2023-05-28T01:30:05;17.10;99.10
9847;DHT22;68671;50.084;8.794;2023-05-28T01:32:35;17.00;99.30
9847;DHT22;68671;50.084;8.794;2023-05-28T01:35:02;16.90;99.50
9847;DHT22;68671;50.084;8.794;2023-05-28T01:37:30;16.80;99.80
9847;DHT22;68671;50.084;8.794;2023-05-28T01:39:59;16.60;99.90
9847;DHT22;68671;50.084;8.794;2023-05-28T01:42:28;16.50;99.90
9847;DHT22;68671;50.084;8.794;2023-05-28T01:44:56;16.40;99.90
9847;DHT22;68671;50.084;8.794;2023-05-28T01:47:23;16.30;99.90
9847;DHT22;68671;50.084;8.794;2023-05-28T01:49:51;16.10;99.90
9847;DHT22;68671;50.084;8.794;2023-05-28T01:52:18;16.00;99.90
9847;DHT22;68671;50.084;8.794;2023-05-28T01:54:45;15.90;99.90
9847;DHT22;68671;50.084;8.794;2023-05-28T01:57:12;15.80;99.90
9847;DHT22;68671;50.084;8.794;2023-05-28T01:59:41;15.70;99.90
9847;DHT22;68671;50.084;8.794;2023-05-28T02:02:09;15.70;99.90
9847;DHT22;68671;50.084;8.794;2023-05-28T02:04:36;15.60;99.90
9847;DHT22;68671;50.084;8.794;2023-05-28T02:07:03;15.60;99.90
9847;DHT22;68671;50.084;8.794;2023-05-28T02:09:31;15.60;99.90
9847;DHT22;68671;50.084;8.794;2023-05-28T02:11:58;15.60;99.90
9847;DHT22;68671;50.084;8.794;2023-05-28T02:14:28;15.60;99.90
9847;DHT22;68671;50.084;8.794;2023-05-28T02:16:57;15.70;99.90
9847;DHT22;68671;50.084;8.794;2023-05-28T02:19:25;15.70;99.90
9847;DHT22;68671;50.084;8.794;2023-05-28T02:21:53;15.70;99.90
9847;DHT22;68671;50.084;8.794;2023-05-28T02:24:21;15.70;99.90
9847;DHT22;68671;50.084;8.794;2023-05-28T02:26:48;15.70;99.90
9847;DHT22;68671;50.084;8.794;2023-05-28T02:29:15;15.70;99.90
9847;DHT22;68671;50.084;8.794;2023-05-28T02:31:42;15.70;99.90
9847;DHT22;68671;50.084;8.794;2023-05-28T02:34:11;15.80;99.90
9847;DHT22;68671;50.084;8.794;2023-05-28T02:36:38;15.80;99.90
9847;DHT22;68671;50.084;8.794;2023-05-28T02:39:05;15.80;99.90
9847;DHT22;68671;50.084;8.794;2023-05-28T02:41:32;15.80;99.90
9847;DHT22;68671;50.084;8.794;2023-05-28T02:43:59;15.80;99.90
9847;DHT22;68671;50.084;8.794;2023-05-28T02:46:26;15.70;99.90
9847;DHT22;68671;50.084;8.794;2023-05-28T02:48:53;15.60;99.90
9847;DHT22;68671;50.084;8.794;2023-05-28T02:51:21;15.50;99.90
9847;DHT22;68671;50.084;8.794;2023-05-28T02:53:48;15.40;99.90
9847;DHT22;68671;50.084;8.794;2023-05-28T02:56:15;15.30;99.90
9847;DHT22;68671;50.084;8.794;2023-05-28T02:58:42;15.20;99.90
9847;DHT22;68671;50.084;8.794;2023-05-28T03:01:09;15.20;99.90
9847;DHT22;68671;50.084;8.794;2023-05-28T03:03:36;15.10;99.90
9847;DHT22;68671;50.084;8.794;2023-05-28T03:06:03;15.10;99.90
9847;DHT22;68671;50.084;8.794;2023-05-28T03:08:34;15.20;99.90
9847;DHT22;68671;50.084;8.794;2023-05-28T03:11:01;15.20;99.90
9847;DHT22;68671;50.084;8.794;2023-05-28T03:13:28;15.10;99.90
9847;DHT22;68671;50.084;8.794;2023-05-28T03:15:55;15.10;99.90
9847;DHT22;68671;50.084;8.794;2023-05-28T03:18:22;15.10;99.90
9847;DHT22;68671;50.084;8.794;2023-05-28T03:20:49;15.20;99.90
9847;DHT22;68671;50.084;8.794;2023-05-28T03:23:16;15.20;99.90
9847;DHT22;68671;50.084;8.794;2023-05-28T03:25:45;15.30;99.90
9847;DHT22;68671;50.084;8.794;2023-05-28T03:28:12;15.40;99.90
9847;DHT22;68671;50.084;8.794;2023-05-28T03:30:38;15.50;99.90
9847;DHT22;68671;50.084;8.794;2023-05-28T03:33:05;15.50;99.90
9847;DHT22;68671;50.084;8.794;2023-05-28T03:35:32;15.60;99.90
9847;DHT22;68671;50.084;8.794;2023-05-28T03:37:59;15.70;99.90
9847;DHT22;68671;50.084;8.794;2023-05-28T03:40:26;15.70;99.90
9847;DHT22;68671;50.084;8.794;2023-05-28T03:42:55;15.70;99.90
9847;DHT22;68671;50.084;8.794;2023-05-28T03:45:22;15.80;99.90
9847;DHT22;68671;50.084;8.794;2023-05-28T03:47:49;15.80;99.90
9847;DHT22;68671;50.084;8.794;2023-05-28T03:50:16;15.80;99.90
9847;DHT22;68671;50.084;8.794;2023-05-28T03:52:43;15.90;99.90
9847;DHT22;68671;50.084;8.794;2023-05-28T03:55:10;15.90;99.90
9847;DHT22;68671;50.084;8.794;2023-05-28T03:57:37;16.00;99.90
9847;DHT22;68671;50.084;8.794;2023-05-28T04:00:08;16.00;99.90
9847;DHT22;68671;50.084;8.794;2023-05-28T04:02:36;16.00;99.90
9847;DHT22;68671;50.084;8.794;2023-05-28T04:05:03;16.00;99.90
9847;DHT22;68671;50.084;8.794;2023-05-28T04:07:31;16.00;99.90
9847;DHT22;68671;50.084;8.794;2023-05-28T04:09:58;16.00;99.90
9847;DHT22;68671;50.084;8.794;2023-05-28T04:12:24;15.90;99.90
9847;DHT22;68671;50.084;8.794;2023-05-28T04:14:51;16.00;99.90
9847;DHT22;68671;50.084;8.794;2023-05-28T04:17:20;16.00;99.90
9847;DHT22;68671;50.084;8.794;2023-05-28T04:19:47;16.30;99.90
9847;DHT22;68671;50.084;8.794;2023-05-28T04:22:14;16.50;99.90
9847;DHT22;68671;50.084;8.794;2023-05-28T04:24:41;16.70;99.90
9847;DHT22;68671;50.084;8.794;2023-05-28T04:27:08;17.10;99.90
9847;DHT22;68671;50.084;8.794;2023-05-28T04:29:35;17.30;99.90
9847;DHT22;68671;50.084;8.794;2023-05-28T04:32:02;17.60;99.90
9847;DHT22;68671;50.084;8.794;2023-05-28T04:34:32;18.00;99.90
9847;DHT22;68671;50.084;8.794;2023-05-28T04:36:59;18.30;99.90
9847;DHT22;68671;50.084;8.794;2023-05-28T04:39:26;18.60;99.90
9847;DHT22;68671;50.084;8.794;2023-05-28T04:41:53;18.90;99.90
9847;DHT22;68671;50.084;8.794;2023-05-28T04:44:20;19.20;99.90
9847;DHT22;68671;50.084;8.794;2023-05-28T04:46:51;19.60;99.90
9847;DHT22;68671;50.084;8.794;2023-05-28T04:49:18;19.90;99.90
9847;DHT22;68671;50.084;8.794;2023-05-28T04:51:46;20.20;99.90
9847;DHT22;68671;50.084;8.794;2023-05-28T04:54:13;20.50;99.90
9847;DHT22;68671;50.084;8.794;2023-05-28T04:56:40;20.70;99.90
9847;DHT22;68671;50.084;8.794;2023-05-28T04:59:07;20.90;99.90
9847;DHT22;68671;50.084;8.794;2023-05-28T05:01:35;21.10;99.90
9847;DHT22;68671;50.084;8.794;2023-05-28T05:04:04;21.40;99.90
9847;DHT22;68671;50.084;8.794;2023-05-28T05:06:32;21.70;99.90
9847;DHT22;68671;50.084;8.794;2023-05-28T05:09:00;22.00;99.90
9847;DHT22;68671;50.084;8.794;2023-05-28T05:11:27;22.30;99.90
9847;DHT22;68671;50.084;8.794;2023-05-28T05:13:54;22.70;99.90
9847;DHT22;68671;50.084;8.794;2023-05-28T05:16:21;23.00;99.40
9847;DHT22;68671;50.084;8.794;2023-05-28T05:18:48;23.20;98.50
9847;DHT22;68671;50.084;8.794;2023-05-28T05:21:15;23.40;97.70
9847;DHT22;68671;50.084;8.794;2023-05-28T05:23:43;23.50;97.20
9847;DHT22;68671;50.084;8.794;2023-05-28T05:26:11;23.70;96.80
9847;DHT22;68671;50.084;8.794;2023-05-28T05:28:39;23.90;96.30
9847;DHT22;68671;50.084;8.794;2023-05-28T05:31:07;24.20;95.90
9847;DHT22;68671;50.084;8.794;2023-05-28T05:33:35;24.50;95.30
9847;DHT22;68671;50.084;8.794;2023-05-28T05:36:02;24.80;94.80
9847;DHT22;68671;50.084;8.794;2023-05-28T05:38:30;25.00;94.10
9847;DHT22;68671;50.084;8.794;2023-05-28T05:40:57;25.30;93.70
9847;DHT22;68671;50.084;8.794;2023-05-28T05:43:26;25.50;93.00
9847;DHT22;68671;50.084;8.794;2023-05-28T05:45:53;25.80;92.40
9847;DHT22;68671;50.084;8.794;2023-05-28T05:48:20;25.90;91.70
9847;DHT22;68671;50.084;8.794;2023-05-28T05:50:48;26.10;90.90
9847;DHT22;68671;50.084;8.794;2023-05-28T05:53:15;26.20;90.30
9847;DHT22;68671;50.084;8.794;2023-05-28T05:55:43;26.30;89.70
9847;DHT22;68671;50.084;8.794;2023-05-28T05:58:10;26.40;88.20
9847;DHT22;68671;50.084;8.794;2023-05-28T06:00:38;26.60;87.60
9847;DHT22;68671;50.084;8.794;2023-05-28T06:03:05;26.70;87.40
9847;DHT22;68671;50.084;8.794;2023-05-28T06:05:32;26.90;86.90
9847;DHT22;68671;50.084;8.794;2023-05-28T06:07:59;27.10;86.20
9847;DHT22;68671;50.084;8.794;2023-05-28T06:10:28;27.40;85.70
9847;DHT22;68671;50.084;8.794;2023-05-28T06:12:55;27.60;84.70
9847;DHT22;68671;50.084;8.794;2023-05-28T06:15:22;27.90;83.50
9847;DHT22;68671;50.084;8.794;2023-05-28T06:17:52;28.10;82.60
9847;DHT22;68671;50.084;8.794;2023-05-28T06:20:19;28.30;81.90
9847;DHT22;68671;50.084;8.794;2023-05-28T06:22:46;28.60;80.90
9847;DHT22;68671;50.084;8.794;2023-05-28T06:25:13;28.80;80.30
9847;DHT22;68671;50.084;8.794;2023-05-28T06:27:40;29.10;78.60
9847;DHT22;68671;50.084;8.794;2023-05-28T06:30:08;29.40;77.00
9847;DHT22;68671;50.084;8.794;2023-05-28T06:32:35;29.60;76.30
9847;DHT22;68671;50.084;8.794;2023-05-28T06:35:04;29.90;75.20
9847;DHT22;68671;50.084;8.794;2023-05-28T06:37:31;30.20;74.80
9847;DHT22;68671;50.084;8.794;2023-05-28T06:39:58;30.60;73.70
9847;DHT22;68671;50.084;8.794;2023-05-28T06:42:25;30.90;73.10
9847;DHT22;68671;50.084;8.794;2023-05-28T06:44:51;31.10;69.50
9847;DHT22;68671;50.084;8.794;2023-05-28T06:47:19;31.10;66.60
9847;DHT22;68671;50.084;8.794;2023-05-28T06:49:45;30.80;64.50
9847;DHT22;68671;50.084;8.794;2023-05-28T06:52:14;30.40;62.80
9847;DHT22;68671;50.084;8.794;2023-05-28T06:54:41;30.00;62.20
9847;DHT22;68671;50.084;8.794;2023-05-28T06:57:08;29.60;62.30
9847;DHT22;68671;50.084;8.794;2023-05-28T06:59:35;29.50;63.50
9847;DHT22;68671;50.084;8.794;2023-05-28T07:02:02;29.40;63.10
9847;DHT22;68671;50.084;8.794;2023-05-28T07:04:29;29.30;63.70
9847;DHT22;68671;50.084;8.794;2023-05-28T07:06:56;29.30;63.60
9847;DHT22;68671;50.084;8.794;2023-05-28T07:09:24;29.30;64.00
9847;DHT22;68671;50.084;8.794;2023-05-28T07:11:51;29.40;64.60
9847;DHT22;68671;50.084;8.794;2023-05-28T07:14:18;29.60;65.20
9847;DHT22;68671;50.084;8.794;2023-05-28T07:16:45;29.90;64.90
9847;DHT22;68671;50.084;8.794;2023-05-28T07:19:12;30.30;64.60
9847;DHT22;68671;50.084;8.794;2023-05-28T07:21:39;30.60;64.90
9847;DHT22;68671;50.084;8.794;2023-05-28T07:24:06;30.80;63.20
9847;DHT22;68671;50.084;8.794;2023-05-28T07:26:35;31.00;61.10
9847;DHT22;68671;50.084;8.794;2023-05-28T07:29:02;31.10;59.70
9847;DHT22;68671;50.084;8.794;2023-05-28T07:31:29;31.10;59.10
9847;DHT22;68671;50.084;8.794;2023-05-28T07:33:57;31.10;59.00
9847;DHT22;68671;50.084;8.794;2023-05-28T07:36:24;31.20;59.70
9847;DHT22;68671;50.084;8.794;2023-05-28T07:38:51;31.50;59.40
9847;DHT22;68671;50.084;8.794;2023-05-28T07:41:18;31.80;59.40
9847;DHT22;68671;50.084;8.794;2023-05-28T07:43:49;32.20;59.50
9847;DHT22;68671;50.084;8.794;2023-05-28T07:46:16;32.50;57.70
9847;DHT22;68671;50.084;8.794;2023-05-28T07:48:43;32.60;56.90
9847;DHT22;68671;50.084;8.794;2023-05-28T07:51:11;32.90;56.60
9847;DHT22;68671;50.084;8.794;2023-05-28T07:53:38;33.20;56.20
9847;DHT22;68671;50.084;8.794;2023-05-28T07:56:05;33.40;55.00
9847;DHT22;68671;50.084;8.794;2023-05-28T07:58:33;33.50;53.70
9847;DHT22;68671;50.084;8.794;2023-05-28T08:01:02;33.40;52.80
9847;DHT22;68671;50.084;8.794;2023-05-28T08:03:34;33.30;52.30
9847;DHT22;68671;50.084;8.794;2023-05-28T08:06:02;33.20;51.90
9847;DHT22;68671;50.084;8.794;2023-05-28T08:08:29;33.20;51.50
9847;DHT22;68671;50.084;8.794;2023-05-28T08:10:56;33.40;52.20
9847;DHT22;68671;50.084;8.794;2023-05-28T08:13:23;33.60;51.40
9847;DHT22;68671;50.084;8.794;2023-05-28T08:15:50;33.60;50.40
9847;DHT22;68671;50.084;8.794;2023-05-28T08:18:19;33.70;50.80
9847;DHT22;68671;50.084;8.794;2023-05-28T08:20:46;33.90;50.80
9847;DHT22;68671;50.084;8.794;2023-05-28T08:23:13;33.80;49.40
9847;DHT22;68671;50.084;8.794;2023-05-28T08:25:40;33.70;48.90
9847;DHT22;68671;50.084;8.794;2023-05-28T08:28:07;33.50;48.50
9847;DHT22;68671;50.084;8.794;2023-05-28T08:30:35;33.10;47.80
9847;DHT22;68671;50.084;8.794;2023-05-28T08:33:02;32.60;47.60
9847;DHT22;68671;50.084;8.794;2023-05-28T08:35:31;31.80;47.30
9847;DHT22;68671;50.084;8.794;2023-05-28T08:37:58;31.00;47.60
9847;DHT22;68671;50.084;8.794;2023-05-28T08:40:25;30.20;47.80
9847;DHT22;68671;50.084;8.794;2023-05-28T08:42:53;29.40;48.30
9847;DHT22;68671;50.084;8.794;2023-05-28T08:45:20;28.70;49.10
9847;DHT22;68671;50.084;8.794;2023-05-28T08:47:48;28.10;50.10
9847;DHT22;68671;50.084;8.794;2023-05-28T08:50:17;27.50;50.60
9847;DHT22;68671;50.084;8.794;2023-05-28T08:52:46;27.00;51.70
9847;DHT22;68671;50.084;8.794;2023-05-28T08:55:15;26.70;52.80
9847;DHT22;68671;50.084;8.794;2023-05-28T08:57:44;26.40;53.70
9847;DHT22;68671;50.084;8.794;2023-05-28T09:00:13;26.10;54.10
9847;DHT22;68671;50.084;8.794;2023-05-28T09:02:43;25.90;54.30
9847;DHT22;68671;50.084;8.794;2023-05-28T09:05:11;25.60;54.90
9847;DHT22;68671;50.084;8.794;2023-05-28T09:07:37;25.30;55.50
9847;DHT22;68671;50.084;8.794;2023-05-28T09:10:07;25.10;55.90
9847;DHT22;68671;50.084;8.794;2023-05-28T09:12:37;25.00;56.70
9847;DHT22;68671;50.084;8.794;2023-05-28T09:15:08;24.80;57.30
9847;DHT22;68671;50.084;8.794;2023-05-28T09:17:36;24.60;57.70
9847;DHT22;68671;50.084;8.794;2023-05-28T09:20:09;24.60;58.70
9847;DHT22;68671;50.084;8.794;2023-05-28T09:22:38;24.50;59.00
9847;DHT22;68671;50.084;8.794;2023-05-28T09:25:10;24.50;59.30
9847;DHT22;68671;50.084;8.794;2023-05-28T09:27:37;24.50;59.30
9847;DHT22;68671;50.084;8.794;2023-05-28T09:30:07;24.40;59.90
9847;DHT22;68671;50.084;8.794;2023-05-28T09:32:34;24.40;60.90
9847;DHT22;68671;50.084;8.794;2023-05-28T09:35:04;24.30;61.00
9847;DHT22;68671;50.084;8.794;2023-05-28T09:37:32;24.30;61.00
9847;DHT22;68671;50.084;8.794;2023-05-28T09:40:01;24.30;61.00
9847;DHT22;68671;50.084;8.794;2023-05-28T09:42:36;24.20;61.30
9847;DHT22;68671;50.084;8.794;2023-05-28T09:45:10;24.10;61.60
9847;DHT22;68671;50.084;8.794;2023-05-28T09:47:44;24.10;61.90
9847;DHT22;68671;50.084;8.794;2023-05-28T09:50:12;24.00;62.10
9847;DHT22;68671;50.084;8.794;2023-05-28T09:52:39;24.00;62.30
9847;DHT22;68671;50.084;8.794;2023-05-28T09:55:13;24.00;62.60
9847;DHT22;68671;50.084;8.794;2023-05-28T09:57:45;24.00;62.90
9847;DHT22;68671;50.084;8.794;2023-05-28T10:00:17;24.00;62.90
9847;DHT22;68671;50.084;8.794;2023-05-28T10:02:55;24.00;63.10
9847;DHT22;68671;50.084;8.794;2023-05-28T10:05:29;23.90;62.90
9847;DHT22;68671;50.084;8.794;2023-05-28T10:08:00;23.90;63.00
9847;DHT22;68671;50.084;8.794;2023-05-28T10:10:29;23.80;63.20
9847;DHT22;68671;50.084;8.794;2023-05-28T10:12:58;23.90;63.70
9847;DHT22;68671;50.084;8.794;2023-05-28T10:15:28;23.90;63.60
9847;DHT22;68671;50.084;8.794;2023-05-28T10:17:55;24.00;63.90
9847;DHT22;68671;50.084;8.794;2023-05-28T10:20:23;24.00;64.00
9847;DHT22;68671;50.084;8.794;2023-05-28T10:22:51;24.00;64.10
9847;DHT22;68671;50.084;8.794;2023-05-28T10:25:19;24.00;64.00
9847;DHT22;68671;50.084;8.794;2023-05-28T10:27:47;24.10;63.90
9847;DHT22;68671;50.084;8.794;2023-05-28T10:30:35;24.00;63.20
9847;DHT22;68671;50.084;8.794;2023-05-28T10:33:07;24.00;63.00
9847;DHT22;68671;50.084;8.794;2023-05-28T10:35:35;23.90;62.80
9847;DHT22;68671;50.084;8.794;2023-05-28T10:38:16;23.90;62.70
9847;DHT22;68671;50.084;8.794;2023-05-28T10:40:45;23.80;62.90
9847;DHT22;68671;50.084;8.794;2023-05-28T10:46:25;23.80;63.80
9847;DHT22;68671;50.084;8.794;2023-05-28T10:49:07;23.80;63.90
9847;DHT22;68671;50.084;8.794;2023-05-28T10:51:55;23.90;63.30
9847;DHT22;68671;50.084;8.794;2023-05-28T10:54:23;23.80;63.20
9847;DHT22;68671;50.084;8.794;2023-05-28T10:57:11;23.90;63.80
9847;DHT22;68671;50.084;8.794;2023-05-28T10:59:46;23.90;63.30
9847;DHT22;68671;50.084;8.794;2023-05-28T11:02:17;23.90;63.40
9847;DHT22;68671;50.084;8.794;2023-05-28T11:04:44;24.00;63.90
9847;DHT22;68671;50.084;8.794;2023-05-28T11:07:12;24.10;63.50
9847;DHT22;68671;50.084;8.794;2023-05-28T11:09:40;24.00;63.20
9847;DHT22;68671;50.084;8.794;2023-05-28T11:12:07;24.00;63.00
9847;DHT22;68671;50.084;8.794;2023-05-28T11:14:35;24.00;63.30
9847;DHT22;68671;50.084;8.794;2023-05-28T11:17:07;24.00;63.60
9847;DHT22;68671;50.084;8.794;2023-05-28T11:19:48;24.10;63.80
9847;DHT22;68671;50.084;8.794;2023-05-28T11:22:16;24.10;63.60
9847;DHT22;68671;50.084;8.794;2023-05-28T11:24:54;24.20;63.60
9847;DHT22;68671;50.084;8.794;2023-05-28T11:27:24;24.20;63.20
9847;DHT22;68671;50.084;8.794;2023-05-28T11:29:57;24.30;62.60
9847;DHT22;68671;50.084;8.794;2023-05-28T11:32:24;24.30;61.40
9847;DHT22;68671;50.084;8.794;2023-05-28T11:34:55;24.30;60.70
9847;DHT22;68671;50.084;8.794;2023-05-28T11:37:24;24.40;60.60
9847;DHT22;68671;50.084;8.794;2023-05-28T11:39:56;24.30;60.80
9847;DHT22;68671;50.084;8.794;2023-05-28T11:42:27;24.40;61.70
9847;DHT22;68671;50.084;8.794;2023-05-28T11:44:55;24.40;61.60
9847;DHT22;68671;50.084;8.794;2023-05-28T11:47:23;24.40;61.40
9847;DHT22;68671;50.084;8.794;2023-05-28T11:49:53;24.40;61.10
9847;DHT22;68671;50.084;8.794;2023-05-28T11:52:24;24.40;60.00
9847;DHT22;68671;50.084;8.794;2023-05-28T11:54:53;24.40;59.60
9847;DHT22;68671;50.084;8.794;2023-05-28T11:57:21;24.40;59.80
9847;DHT22;68671;50.084;8.794;2023-05-28T12:00:02;24.30;60.20
9847;DHT22;68671;50.084;8.794;2023-05-28T12:02:32;24.40;60.80
9847;DHT22;68671;50.084;8.794;2023-05-28T12:05:02;24.40;61.10
9847;DHT22;68671;50.084;8.794;2023-05-28T12:07:31;24.50;61.50
9847;DHT22;68671;50.084;8.794;2023-05-28T12:10:02;24.60;61.60
9847;DHT22;68671;50.084;8.794;2023-05-28T12:12:30;24.60;61.00
9847;DHT22;68671;50.084;8.794;2023-05-28T12:14:58;24.60;60.30
9847;DHT22;68671;50.084;8.794;2023-05-28T12:17:25;24.50;59.90
9847;DHT22;68671;50.084;8.794;2023-05-28T12:19:53;24.50;59.80
9847;DHT22;68671;50.084;8.794;2023-05-28T12:22:22;24.50;59.90
9847;DHT22;68671;50.084;8.794;2023-05-28T12:24:55;24.50;60.20
9847;DHT22;68671;50.084;8.794;2023-05-28T12:27:22;24.60;60.00
9847;DHT22;68671;50.084;8.794;2023-05-28T12:29:49;24.60;60.00
9847;DHT22;68671;50.084;8.794;2023-05-28T12:32:16;24.60;59.90
9847;DHT22;68671;50.084;8.794;2023-05-28T12:34:44;24.60;59.40
9847;DHT22;68671;50.084;8.794;2023-05-28T12:37:11;24.50;58.70
9847;DHT22;68671;50.084;8.794;2023-05-28T12:39:40;24.50;58.70
9847;DHT22;68671;50.084;8.794;2023-05-28T12:42:07;24.50;59.00
9847;DHT22;68671;50.084;8.794;2023-05-28T12:44:34;24.50;59.50
9847;DHT22;68671;50.084;8.794;2023-05-28T12:47:01;24.60;60.00
9847;DHT22;68671;50.084;8.794;2023-05-28T12:49:28;24.60;60.40
9847;DHT22;68671;50.084;8.794;2023-05-28T12:51:55;24.50;60.80
9847;DHT22;68671;50.084;8.794;2023-05-28T12:54:22;24.50;61.10
9847;DHT22;68671;50.084;8.794;2023-05-28T12:56:50;24.50;60.90
9847;DHT22;68671;50.084;8.794;2023-05-28T12:59:20;24.50;60.60
9847;DHT22;68671;50.084;8.794;2023-05-28T13:01:48;24.40;60.10
9847;DHT22;68671;50.084;8.794;2023-05-28T13:04:15;24.40;60.20
9847;DHT22;68671;50.084;8.794;2023-05-28T13:06:43;24.40;60.50
9847;DHT22;68671;50.084;8.794;2023-05-28T13:09:10;24.30;60.40
9847;DHT22;68671;50.084;8.794;2023-05-28T13:11:38;24.40;60.00
9847;DHT22;68671;50.084;8.794;2023-05-28T13:14:07;24.40;59.80
9847;DHT22;68671;50.084;8.794;2023-05-28T13:16:35;24.30;59.60
9847;DHT22;68671;50.084;8.794;2023-05-28T13:19:03;24.40;59.70
9847;DHT22;68671;50.084;8.794;2023-05-28T13:21:30;24.30;59.90
9847;DHT22;68671;50.084;8.794;2023-05-28T13:24:01;24.40;60.50
9847;DHT22;68671;50.084;8.794;2023-05-28T13:26:30;24.30;60.70
9847;DHT22;68671;50.084;8.794;2023-05-28T13:28:58;24.40;61.20
9847;DHT22;68671;50.084;8.794;2023-05-28T13:31:27;24.40;61.40
9847;DHT22;68671;50.084;8.794;2023-05-28T13:33:54;24.40;61.10
9847;DHT22;68671;50.084;8.794;2023-05-28T13:36:21;24.40;60.80
9847;DHT22;68671;50.084;8.794;2023-05-28T13:38:48;24.40;60.10
9847;DHT22;68671;50.084;8.794;2023-05-28T13:41:15;24.40;59.80
9847;DHT22;68671;50.084;8.794;2023-05-28T13:43:43;24.40;59.70
9847;DHT22;68671;50.084;8.794;2023-05-28T13:46:12;24.50;59.90
9847;DHT22;68671;50.084;8.794;2023-05-28T13:48:43;24.50;59.90
9847;DHT22;68671;50.084;8.794;2023-05-28T13:51:10;24.60;59.80
9847;DHT22;68671;50.084;8.794;2023-05-28T13:53:37;24.50;60.20
9847;DHT22;68671;50.084;8.794;2023-05-28T13:56:04;24.50;60.70
9847;DHT22;68671;50.084;8.794;2023-05-28T13:58:31;24.50;60.40
9847;DHT22;68671;50.084;8.794;2023-05-28T14:01:00;24.60;60.40
9847;DHT22;68671;50.084;8.794;2023-05-28T14:03:27;24.60;60.50
9847;DHT22;68671;50.084;8.794;2023-05-28T14:05:56;24.60;60.40
9847;DHT22;68671;50.084;8.794;2023-05-28T14:08:23;24.60;59.80
9847;DHT22;68671;50.084;8.794;2023-05-28T14:10:50;24.70;60.00
9847;DHT22;68671;50.084;8.794;2023-05-28T14:13:17;24.80;60.50
9847;DHT22;68671;50.084;8.794;2023-05-28T14:15:44;24.70;60.50
9847;DHT22;68671;50.084;8.794;2023-05-28T14:18:11;24.80;60.70
9847;DHT22;68671;50.084;8.794;2023-05-28T14:20:38;24.80;60.60
9847;DHT22;68671;50.084;8.794;2023-05-28T14:23:07;24.80;60.20
9847;DHT22;68671;50.084;8.794;2023-05-28T14:25:34;24.80;60.20
9847;DHT22;68671;50.084;8.794;2023-05-28T14:28:01;24.80;59.80
9847;DHT22;68671;50.084;8.794;2023-05-28T14:30:28;24.80;59.60
9847;DHT22;68671;50.084;8.794;2023-05-28T14:32:55;24.80;59.30
9847;DHT22;68671;50.084;8.794;2023-05-28T14:35:22;24.80;59.10
9847;DHT22;68671;50.084;8.794;2023-05-28T14:37:49;24.80;59.10
9847;DHT22;68671;50.084;8.794;2023-05-28T14:40:18;24.80;59.90
9847;DHT22;68671;50.084;8.794;2023-05-28T14:42:46;24.80;59.20
9847;DHT22;68671;50.084;8.794;2023-05-28T14:45:14;24.70;59.20
9847;DHT22;68671;50.084;8.794;2023-05-28T14:47:41;24.70;59.30
9847;DHT22;68671;50.084;8.794;2023-05-28T14:50:08;24.70;59.30
9847;DHT22;68671;50.084;8.794;2023-05-28T14:52:35;24.70;58.90
9847;DHT22;68671;50.084;8.794;2023-05-28T14:55:03;24.60;58.60
9847;DHT22;68671;50.084;8.794;2023-05-28T14:57:32;24.60;58.70
9847;DHT22;68671;50.084;8.794;2023-05-28T15:00:01;24.60;58.80
9847;DHT22;68671;50.084;8.794;2023-05-28T15:02:30;24.60;59.20
9847;DHT22;68671;50.084;8.794;2023-05-28T15:04:57;24.70;59.80
9847;DHT22;68671;50.084;8.794;2023-05-28T15:07:24;24.70;60.10
9847;DHT22;68671;50.084;8.794;2023-05-28T15:09:51;24.70;60.50
9847;DHT22;68671;50.084;8.794;2023-05-28T15:12:18;24.70;60.40
9847;DHT22;68671;50.084;8.794;2023-05-28T15:14:47;24.70;60.00
9847;DHT22;68671;50.084;8.794;2023-05-28T15:17:14;24.70;59.90
9847;DHT22;68671;50.084;8.794;2023-05-28T15:19:41;24.70;60.00
9847;DHT22;68671;50.084;8.794;2023-05-28T15:22:08;24.60;60.00
9847;DHT22;68671;50.084;8.794;2023-05-28T15:24:35;24.60;60.10
9847;DHT22;68671;50.084;8.794;2023-05-28T15:27:03;24.60;59.80
9847;DHT22;68671;50.084;8.794;2023-05-28T15:29:30;24.60;59.60
9847;DHT22;68671;50.084;8.794;2023-05-28T15:32:00;24.60;59.80
9847;DHT22;68671;50.084;8.794;2023-05-28T15:34:28;24.60;59.90
9847;DHT22;68671;50.084;8.794;2023-05-28T15:36:55;24.70;60.00
9847;DHT22;68671;50.084;8.794;2023-05-28T15:39:23;24.70;60.10
9847;DHT22;68671;50.084;8.794;2023-05-28T15:41:51;24.70;60.10
9847;DHT22;68671;50.084;8.794;2023-05-28T15:44:21;24.70;59.60
9847;DHT22;68671;50.084;8.794;2023-05-28T15:46:48;24.60;59.10
9847;DHT22;68671;50.084;8.794;2023-05-28T15:49:16;24.70;58.80
9847;DHT22;68671;50.084;8.794;2023-05-28T15:51:43;24.70;58.50
9847;DHT22;68671;50.084;8.794;2023-05-28T15:54:10;24.70;58.50